LROD-ORADEA

Valid from:2018-11-13 02:00:00

METAR LROD 130200Z AUTO 11006KT 2800 BR NCD 06/04 Q1027=

Valid from:2018-11-12 17:00:00

TAF LROD 121700Z 1218/1303 VRB04KT CAVOK BECMG 1220/1222 3000 BR TEMPO 1300/1303 0800 FG=